Los Angeles, California
Traffic Map
Current Weather Conditions
Los Angeles, California
Broken Clouds
Broken Clouds
57°
Feels Like: 57°
Wind Chill: 57° Ceiling: 3400
Heat Index: 57° Visibility: 10mi
Dew Point: 46° Wind: 0mph
Humidity: 67% Direction: ° ()
Pressure: 29.82in Gusts: 0mph
Raw Report DataKCQT 281547Z AUTO 00000KT 10SM SCT029 BKN034 BKN046 14/08 A2982 RMK AO2 SLP097 T01390078
Traffic Incident Summary
Active as of:
Severity:
Category:
InformationThere was an issue retrieving the traffic information for this location. Please try a different location or try again shortly.
Advertisements
Track Severe Weather on mobile